Time;durP1;ratioP1;P1;durP2;ratioP2;P2;SDS_P1;SDS_P2;PMS_P1;PMS_P2;Temp;Humidity;BMP_temperature;BMP_pressure;BME280_temperature;BME280_humidity;BME280_pressure;Samples;Min_cycle;Max_cycle;Signal;HPM_P1;HPM_P2
2023/08/31 00:01:09;;;;;;;10.50;4.85;;;15.40;99.90;;;;;;4999675;28;20053;-67
2023/08/31 00:03:34;;;;;;;7.72;4.30;;;15.20;99.90;;;;;;5000884;28;20033;-68
2023/08/31 00:06:03;;;;;;;8.95;4.55;;;15.30;99.90;;;;;;5000540;28;20027;-67
2023/08/31 00:08:29;;;;;;;8.63;4.55;;;15.20;99.90;;;;;;4999623;28;20033;-68
2023/08/31 00:10:59;;;;;;;11.10;5.07;;;15.20;99.90;;;;;;4999806;28;20022;-67
2023/08/31 00:13:26;;;;;;;8.98;4.93;;;15.10;99.90;;;;;;5000338;28;20073;-67
2023/08/31 00:15:54;;;;;;;7.95;4.93;;;15.00;99.90;;;;;;5000481;28;20053;-68
2023/08/31 00:18:20;;;;;;;8.50;4.97;;;15.00;99.90;;;;;;4999450;28;20080;-68
2023/08/31 00:20:46;;;;;;;6.82;5.00;;;15.00;99.90;;;;;;5000490;28;20027;-68
2023/08/31 00:23:11;;;;;;;10.70;5.32;;;15.00;99.90;;;;;;5000123;28;20030;-68
2023/08/31 00:25:37;;;;;;;8.15;5.35;;;14.90;99.90;;;;;;4999546;28;20026;-67
2023/08/31 00:28:04;;;;;;;10.90;5.65;;;15.00;99.90;;;;;;4999588;28;20023;-68
2023/08/31 00:30:33;;;;;;;17.75;5.90;;;14.90;99.90;;;;;;4999914;28;20022;-67
2023/08/31 00:33:01;;;;;;;8.90;5.15;;;14.80;99.90;;;;;;5000206;28;20023;-67
2023/08/31 00:35:27;;;;;;;9.45;5.63;;;14.80;99.90;;;;;;4999097;28;20026;-68
2023/08/31 00:38:00;;;;;;;16.65;5.97;;;14.70;99.90;;;;;;4999391;28;20098;-67
2023/08/31 00:40:26;;;;;;;10.57;5.20;;;14.60;99.90;;;;;;4999909;28;20030;-67
2023/08/31 00:42:51;;;;;;;10.57;5.40;;;14.50;99.90;;;;;;4999895;28;20028;-68
2023/08/31 00:45:18;;;;;;;7.60;5.22;;;14.50;99.90;;;;;;5000190;28;20046;-67
2023/08/31 00:47:47;;;;;;;7.65;5.18;;;14.60;99.90;;;;;;4999742;28;20023;-68
2023/08/31 00:50:12;;;;;;;9.63;5.53;;;14.80;99.90;;;;;;4999768;28;20018;-68
2023/08/31 00:52:38;;;;;;;14.68;5.57;;;14.80;99.90;;;;;;5000481;28;20034;-68
2023/08/31 00:55:05;;;;;;;11.43;4.88;;;14.80;99.90;;;;;;4999836;28;20022;-67
2023/08/31 00:57:30;;;;;;;12.13;5.18;;;14.70;99.90;;;;;;4998515;28;20037;-68
2023/08/31 00:59:56;;;;;;;8.10;5.47;;;14.80;99.90;;;;;;4999846;28;20035;-68
2023/08/31 01:02:55;;;;;;;9.27;5.22;;;14.80;99.90;;;;;;4998644;28;20045;-68
2023/08/31 01:05:37;;;;;;;10.63;5.60;;;14.80;99.90;;;;;;4939871;29;20047;-68
2023/08/31 01:08:20;;;;;;;11.55;5.90;;;14.70;99.90;;;;;;4924321;29;20028;-67
2023/08/31 01:10:45;;;;;;;8.05;4.75;;;14.60;99.90;;;;;;4940134;29;20135;-68
2023/08/31 01:13:14;;;;;;;8.38;5.78;;;14.70;99.90;;;;;;4923949;29;20024;-67
2023/08/31 01:15:44;;;;;;;9.85;5.93;;;14.90;99.90;;;;;;4940229;29;20050;-68
2023/08/31 01:18:11;;;;;;;11.63;5.78;;;14.90;99.90;;;;;;4939762;29;20027;-67
2023/08/31 01:21:17;;;;;;;10.95;6.00;;;14.90;99.90;;;;;;4923889;29;20027;-68
2023/08/31 01:23:58;;;;;;;12.40;6.45;;;14.80;99.90;;;;;;4931776;29;20096;-68
2023/08/31 01:26:24;;;;;;;14.32;5.93;;;14.90;99.90;;;;;;4939713;29;20036;-68
2023/08/31 01:28:51;;;;;;;11.07;5.82;;;14.90;99.90;;;;;;4923767;29;20042;-68
2023/08/31 01:31:17;;;;;;;8.30;4.95;;;14.90;99.90;;;;;;4939501;29;20119;-68
2023/08/31 01:33:43;;;;;;;7.65;5.35;;;15.00;99.90;;;;;;4939817;29;20063;-68
2023/08/31 01:36:20;;;;;;;8.75;4.63;;;15.00;99.90;;;;;;4939523;29;20064;-68
2023/08/31 01:38:50;;;;;;;10.00;5.13;;;14.90;99.90;;;;;;4923454;29;20067;-67
2023/08/31 01:41:19;;;;;;;10.23;4.85;;;14.70;99.90;;;;;;4935507;28;20038;-67
2023/08/31 01:43:47;;;;;;;6.90;4.65;;;14.70;99.90;;;;;;4997803;28;20037;-67
2023/08/31 01:46:13;;;;;;;10.45;5.30;;;14.70;99.90;;;;;;4998758;28;20029;-68
2023/08/31 01:48:41;;;;;;;9.60;4.93;;;14.60;99.90;;;;;;4997750;28;20026;-68
2023/08/31 01:51:09;;;;;;;8.77;4.78;;;14.50;99.90;;;;;;4997915;28;20100;-67
2023/08/31 01:53:34;;;;;;;10.60;5.05;;;14.40;99.90;;;;;;4997550;28;20058;-68
2023/08/31 01:56:00;;;;;;;7.70;4.32;;;14.40;99.90;;;;;;4998456;28;20026;-67
2023/08/31 01:58:25;;;;;;;9.18;4.80;;;14.30;99.90;;;;;;4997569;28;20026;-68
2023/08/31 02:00:51;;;;;;;10.82;4.78;;;14.30;99.90;;;;;;4998208;28;20118;-68
2023/08/31 02:03:16;;;;;;;7.97;4.72;;;14.20;99.90;;;;;;4998451;28;20117;-68
2023/08/31 02:05:42;;;;;;;11.43;5.35;;;14.20;99.90;;;;;;4997300;28;20026;-68
2023/08/31 02:08:07;;;;;;;6.75;4.55;;;14.20;99.90;;;;;;4996961;28;20101;-68
2023/08/31 02:10:33;;;;;;;8.48;5.40;;;14.20;99.90;;;;;;4997769;28;20027;-67
2023/08/31 02:13:00;;;;;;;10.90;4.60;;;14.20;99.90;;;;;;4997954;28;20026;-67
2023/08/31 02:15:25;;;;;;;7.70;4.72;;;14.10;99.90;;;;;;4997435;28;20025;-67
2023/08/31 02:17:51;;;;;;;8.77;4.57;;;14.30;99.90;;;;;;4997103;28;20026;-68
2023/08/31 02:20:16;;;;;;;6.35;4.65;;;14.30;99.90;;;;;;4997200;28;20116;-68
2023/08/31 02:22:42;;;;;;;8.82;5.15;;;14.40;99.90;;;;;;4997385;28;20121;-68
2023/08/31 02:25:08;;;;;;;9.90;5.25;;;14.40;99.90;;;;;;4997496;28;20062;-68
2023/08/31 02:27:33;;;;;;;7.57;3.88;;;14.40;99.90;;;;;;4997094;28;20027;-68
2023/08/31 02:29:59;;;;;;;9.45;4.75;;;14.50;99.90;;;;;;4997956;28;20029;-68
2023/08/31 02:32:24;;;;;;;8.50;4.15;;;14.60;99.90;;;;;;4996954;28;20022;-68
2023/08/31 02:34:50;;;;;;;7.78;4.20;;;14.50;99.90;;;;;;4997296;28;20042;-67
2023/08/31 02:37:16;;;;;;;9.23;5.00;;;14.50;99.90;;;;;;4997054;28;20022;-68
2023/08/31 02:39:41;;;;;;;6.15;4.50;;;14.50;99.90;;;;;;4996874;28;20029;-68
2023/08/31 02:42:07;;;;;;;6.47;4.18;;;14.60;99.90;;;;;;4997876;28;20030;-67
2023/08/31 02:44:33;;;;;;;9.00;4.57;;;14.60;99.90;;;;;;4996954;28;20065;-68
2023/08/31 02:46:59;;;;;;;9.50;5.15;;;14.60;99.90;;;;;;4996745;28;20061;-67
2023/08/31 02:49:24;;;;;;;7.25;4.68;;;14.50;99.90;;;;;;4996772;28;20045;-68
2023/08/31 02:51:50;;;;;;;8.90;4.10;;;14.50;99.90;;;;;;5030522;22;20038;-67
2023/08/31 02:54:15;;;;;;;13.35;5.28;;;14.50;99.90;;;;;;5017526;28;20021;-67
2023/08/31 02:56:42;;;;;;;8.98;4.28;;;14.50;99.90;;;;;;5016710;28;20125;-67
2023/08/31 02:59:07;;;;;;;9.50;4.60;;;14.50;99.90;;;;;;5016325;28;20033;-67
2023/08/31 03:01:33;;;;;;;9.48;4.72;;;14.30;99.90;;;;;;5016508;28;20026;-67
2023/08/31 03:03:58;;;;;;;9.75;4.60;;;14.10;99.90;;;;;;5016364;28;20022;-67
2023/08/31 03:06:25;;;;;;;6.35;4.68;;;14.00;99.90;;;;;;5017052;28;20030;-67
2023/08/31 03:08:50;;;;;;;6.65;4.30;;;13.90;99.90;;;;;;5017181;28;20026;-67
2023/08/31 03:11:16;;;;;;;11.48;4.85;;;13.90;99.90;;;;;;5017211;28;20068;-67
2023/08/31 03:13:41;;;;;;;10.13;4.85;;;13.90;99.90;;;;;;5016329;28;20029;-67
2023/08/31 03:16:07;;;;;;;9.57;5.00;;;14.00;99.90;;;;;;5016964;28;20026;-67
2023/08/31 03:18:33;;;;;;;6.50;4.57;;;14.00;99.90;;;;;;5017226;28;20057;-67
2023/08/31 03:20:58;;;;;;;8.82;5.57;;;14.10;99.90;;;;;;5020407;28;20033;-67
2023/08/31 03:23:25;;;;;;;10.43;4.32;;;14.30;99.90;;;;;;5021000;28;20025;-67
2023/08/31 03:25:50;;;;;;;9.25;4.32;;;14.30;99.90;;;;;;5020753;28;20029;-67
2023/08/31 03:28:16;;;;;;;10.05;4.90;;;14.40;99.90;;;;;;5020160;28;20033;-67
2023/08/31 03:30:41;;;;;;;7.22;4.55;;;14.50;99.90;;;;;;5020298;28;20025;-67
2023/08/31 03:33:07;;;;;;;8.32;4.35;;;14.50;99.90;;;;;;5020870;28;20024;-67
2023/08/31 03:35:33;;;;;;;11.43;4.13;;;14.50;99.90;;;;;;5019831;28;20068;-67
2023/08/31 03:37:59;;;;;;;7.57;4.13;;;14.70;99.90;;;;;;5019950;28;20022;-67
2023/08/31 03:40:24;;;;;;;8.40;4.30;;;14.70;99.90;;;;;;5020273;28;20036;-67
2023/08/31 03:42:50;;;;;;;12.95;4.93;;;14.70;99.90;;;;;;5019671;28;20022;-67
2023/08/31 03:45:16;;;;;;;7.95;4.00;;;14.80;99.90;;;;;;5019745;28;20030;-67
2023/08/31 03:47:41;;;;;;;6.97;4.70;;;14.70;99.90;;;;;;5020242;28;20026;-67
2023/08/31 03:50:08;;;;;;;13.10;4.82;;;14.60;99.90;;;;;;5019672;28;20045;-67
2023/08/31 03:52:33;;;;;;;9.50;4.75;;;14.50;99.90;;;;;;5019722;28;20114;-67
2023/08/31 03:54:59;;;;;;;7.43;4.43;;;14.50;99.90;;;;;;5020270;28;20149;-67
2023/08/31 03:57:24;;;;;;;7.95;5.07;;;14.50;99.90;;;;;;5019574;28;20026;-67
2023/08/31 03:59:50;;;;;;;11.75;5.13;;;14.50;99.90;;;;;;5020161;28;20029;-67
2023/08/31 04:02:15;;;;;;;8.10;4.53;;;14.50;99.90;;;;;;5019357;28;20030;-67
2023/08/31 04:04:41;;;;;;;8.32;4.78;;;14.40;99.90;;;;;;5019434;28;20022;-67
2023/08/31 04:07:06;;;;;;;9.27;4.80;;;14.40;99.90;;;;;;5019524;28;20030;-67
2023/08/31 04:09:32;;;;;;;9.07;5.70;;;14.30;99.90;;;;;;5019241;28;20018;-68
2023/08/31 04:11:58;;;;;;;10.98;4.65;;;14.30;99.90;;;;;;5020263;28;20018;-67
2023/08/31 04:14:26;;;;;;;7.65;4.68;;;14.40;99.90;;;;;;5019187;28;20205;-67
2023/08/31 04:16:51;;;;;;;6.22;4.13;;;14.50;99.90;;;;;;5020018;28;20025;-67
2023/08/31 04:19:17;;;;;;;5.50;4.35;;;14.50;99.90;;;;;;5019106;28;20125;-67
2023/08/31 04:21:43;;;;;;;5.78;3.95;;;14.60;99.90;;;;;;5019927;28;20030;-67
2023/08/31 04:24:09;;;;;;;11.10;4.20;;;14.50;99.90;;;;;;5020116;28;20022;-67
2023/08/31 04:26:34;;;;;;;8.57;5.18;;;14.50;99.90;;;;;;5019790;28;20037;-67
2023/08/31 04:29:01;;;;;;;11.75;4.72;;;14.50;99.90;;;;;;5019254;28;20044;-67
2023/08/31 04:31:26;;;;;;;8.50;4.22;;;14.60;99.90;;;;;;5018892;28;20067;-67
2023/08/31 04:33:53;;;;;;;11.30;5.07;;;14.50;99.90;;;;;;5019882;28;20097;-67
2023/08/31 04:36:22;;;;;;;11.25;5.38;;;14.60;99.90;;;;;;5018786;28;20026;-67
2023/08/31 04:38:51;;;;;;;7.93;5.40;;;14.60;99.90;;;;;;5018691;28;20037;-67
2023/08/31 04:41:17;;;;;;;10.18;5.65;;;14.60;99.90;;;;;;5018891;28;20033;-67
2023/08/31 04:43:43;;;;;;;9.10;4.82;;;14.50;99.90;;;;;;5018628;28;20032;-67
2023/08/31 04:46:09;;;;;;;8.65;5.05;;;14.40;99.90;;;;;;5018520;28;20025;-67
2023/08/31 04:48:36;;;;;;;7.38;4.63;;;14.40;99.90;;;;;;5018430;28;20022;-67
2023/08/31 04:51:03;;;;;;;17.17;5.13;;;14.50;99.90;;;;;;5019022;28;20065;-67
2023/08/31 04:53:30;;;;;;;10.88;5.40;;;14.40;99.90;;;;;;5018426;28;20030;-67
2023/08/31 04:55:55;;;;;;;7.97;5.18;;;14.40;99.90;;;;;;5018680;28;20022;-67
2023/08/31 04:58:21;;;;;;;16.40;5.75;;;14.20;99.90;;;;;;5019004;28;20029;-67
2023/08/31 05:00:47;;;;;;;9.82;5.00;;;14.20;99.90;;;;;;5018570;28;20058;-67
2023/08/31 05:03:13;;;;;;;11.07;5.03;;;14.20;99.90;;;;;;5018593;28;20045;-67
2023/08/31 05:05:38;;;;;;;12.05;5.70;;;14.10;99.90;;;;;;5018277;28;20022;-67
2023/08/31 05:08:04;;;;;;;11.25;6.45;;;14.20;99.90;;;;;;5018129;28;20068;-67
2023/08/31 05:10:30;;;;;;;12.45;5.88;;;14.20;99.90;;;;;;5018137;28;20030;-67
2023/08/31 05:12:55;;;;;;;11.02;5.18;;;14.10;99.90;;;;;;5019024;28;20077;-67
2023/08/31 05:15:22;;;;;;;10.52;5.38;;;14.10;99.90;;;;;;5018051;28;20160;-67
2023/08/31 05:17:48;;;;;;;10.60;4.75;;;14.20;99.90;;;;;;5018010;28;20032;-67
2023/08/31 05:20:14;;;;;;;7.40;4.93;;;14.40;99.90;;;;;;5017854;28;20125;-67
2023/08/31 05:22:39;;;;;;;8.98;5.20;;;14.30;99.90;;;;;;5017930;28;20033;-67
2023/08/31 05:25:05;;;;;;;10.88;4.55;;;14.30;99.90;;;;;;5018695;28;20086;-67
2023/08/31 05:27:31;;;;;;;6.85;4.07;;;14.40;99.90;;;;;;5018570;28;20030;-67
2023/08/31 05:29:57;;;;;;;6.78;4.57;;;14.50;99.90;;;;;;5018953;28;20080;-67
2023/08/31 05:32:22;;;;;;;9.07;5.10;;;14.50;99.90;;;;;;5017523;28;20049;-67
2023/08/31 05:34:47;;;;;;;9.63;5.65;;;14.50;99.90;;;;;;5017808;28;20033;-67
2023/08/31 05:37:14;;;;;;;7.75;3.95;;;14.40;99.90;;;;;;5018636;28;20049;-67
2023/08/31 05:39:40;;;;;;;7.40;4.32;;;14.50;99.90;;;;;;5017623;28;20026;-67
2023/08/31 05:42:05;;;;;;;13.75;4.75;;;14.50;99.90;;;;;;5016830;28;20026;-67
2023/08/31 05:44:31;;;;;;;6.95;4.32;;;14.50;99.90;;;;;;5016987;28;20079;-67
2023/08/31 05:46:56;;;;;;;8.15;4.88;;;14.40;99.90;;;;;;5017429;28;20028;-67
2023/08/31 05:49:22;;;;;;;15.30;4.45;;;14.40;99.90;;;;;;5017432;28;20022;-67
2023/08/31 05:51:48;;;;;;;8.23;4.32;;;14.30;99.90;;;;;;5017311;28;20041;-67
2023/08/31 05:54:14;;;;;;;9.35;4.75;;;14.30;99.90;;;;;;5018413;28;20026;-67
2023/08/31 05:56:40;;;;;;;10.48;4.25;;;14.40;99.90;;;;;;5018056;28;20036;-67
2023/08/31 05:59:07;;;;;;;7.97;4.07;;;14.40;99.90;;;;;;5018191;28;20033;-67
2023/08/31 06:01:33;;;;;;;8.60;4.35;;;14.50;99.90;;;;;;5017637;28;20028;-67
2023/08/31 06:03:59;;;;;;;9.13;4.03;;;14.50;99.90;;;;;;5017223;28;20030;-68
2023/08/31 06:06:24;;;;;;;7.30;4.43;;;14.50;99.90;;;;;;5017759;28;20030;-68
2023/08/31 06:08:50;;;;;;;7.95;4.53;;;14.60;99.90;;;;;;5017011;28;20026;-67
2023/08/31 06:11:15;;;;;;;8.05;4.32;;;14.60;99.90;;;;;;5017032;28;20022;-67
2023/08/31 06:13:41;;;;;;;8.05;4.85;;;14.60;99.90;;;;;;5017007;28;20022;-67
2023/08/31 06:16:07;;;;;;;9.43;4.40;;;14.50;99.90;;;;;;5017870;28;20040;-67
2023/08/31 06:18:32;;;;;;;7.25;4.40;;;14.40;99.90;;;;;;5017780;28;20025;-68
2023/08/31 06:20:58;;;;;;;7.82;4.05;;;14.40;99.90;;;;;;5017662;28;20026;-70
2023/08/31 06:23:24;;;;;;;7.07;4.55;;;14.50;99.90;;;;;;5017563;28;20050;-69
2023/08/31 06:25:49;;;;;;;10.88;5.10;;;14.50;99.90;;;;;;5016956;28;20026;-69
2023/08/31 06:28:16;;;;;;;7.70;3.97;;;14.60;99.90;;;;;;5016831;28;20100;-69
2023/08/31 06:30:46;;;;;;;8.15;4.70;;;14.60;99.90;;;;;;5016655;28;20022;-69
2023/08/31 06:33:13;;;;;;;6.95;4.18;;;14.50;99.90;;;;;;5016889;28;20048;-69
2023/08/31 06:35:38;;;;;;;8.75;4.18;;;14.40;99.90;;;;;;5017862;28;20048;-69
2023/08/31 06:38:04;;;;;;;10.68;4.80;;;14.30;99.90;;;;;;5016642;28;20033;-67
2023/08/31 06:40:30;;;;;;;9.15;4.05;;;14.40;99.90;;;;;;5016700;28;20029;-67
2023/08/31 06:42:55;;;;;;;7.50;4.65;;;14.40;99.90;;;;;;5016417;28;20037;-67
2023/08/31 06:45:21;;;;;;;8.10;3.97;;;14.50;99.90;;;;;;5017440;28;20041;-67
2023/08/31 06:47:46;;;;;;;7.28;3.53;;;14.40;99.90;;;;;;5017306;28;20029;-67
2023/08/31 06:50:12;;;;;;;8.20;4.57;;;14.40;99.90;;;;;;5017363;28;20029;-67
2023/08/31 06:52:40;;;;;;;8.40;3.90;;;14.30;99.90;;;;;;5017854;28;20109;-68
2023/08/31 06:55:06;;;;;;;7.40;3.63;;;14.20;99.90;;;;;;5016217;28;20172;-67
2023/08/31 06:57:32;;;;;;;10.80;3.67;;;14.20;99.90;;;;;;5016819;28;20058;-67
2023/08/31 06:59:58;;;;;;;6.93;3.45;;;14.20;99.90;;;;;;5016399;28;20022;-67
2023/08/31 07:02:26;;;;;;;6.82;3.35;;;14.20;99.90;;;;;;5017126;28;20032;-67
2023/08/31 07:04:52;;;;;;;6.28;3.50;;;14.20;99.90;;;;;;5017203;28;20037;-67
2023/08/31 07:07:18;;;;;;;16.30;3.85;;;14.20;99.90;;;;;;5017293;28;20026;-67
2023/08/31 07:09:45;;;;;;;6.10;3.38;;;14.30;99.90;;;;;;5016289;28;20026;-68
2023/08/31 07:12:11;;;;;;;6.95;3.33;;;14.30;99.90;;;;;;5016247;28;20026;-68
2023/08/31 07:14:37;;;;;;;6.50;3.30;;;14.40;99.90;;;;;;5017397;28;20097;-68
2023/08/31 07:17:03;;;;;;;6.68;3.22;;;14.50;99.90;;;;;;5017169;28;20033;-68
2023/08/31 07:19:28;;;;;;;5.88;3.17;;;14.60;99.90;;;;;;5016106;28;20116;-68
2023/08/31 07:21:56;;;;;;;5.57;3.40;;;14.60;99.90;;;;;;5016916;28;20026;-68
2023/08/31 07:24:25;;;;;;;7.40;2.83;;;14.70;99.90;;;;;;5017075;28;20080;-68
2023/08/31 07:26:50;;;;;;;6.75;3.03;;;14.80;99.90;;;;;;5017183;28;20117;-69
2023/08/31 07:29:16;;;;;;;8.00;2.83;;;14.80;99.90;;;;;;5017235;28;20030;-68
2023/08/31 07:31:41;;;;;;;4.93;2.80;;;14.80;99.90;;;;;;5016021;28;20030;-69
2023/08/31 07:34:07;;;;;;;8.18;2.60;;;14.80;99.90;;;;;;5015971;28;20111;-67
2023/08/31 07:36:33;;;;;;;11.15;2.60;;;14.80;99.90;;;;;;5016989;28;20041;-68
2023/08/31 07:38:58;;;;;;;4.35;2.78;;;14.80;99.90;;;;;;5016948;28;20026;-67
2023/08/31 07:41:24;;;;;;;11.18;3.00;;;14.80;99.90;;;;;;5016948;28;20057;-68
2023/08/31 07:43:50;;;;;;;6.72;2.38;;;14.80;99.90;;;;;;5016050;28;20033;-67
2023/08/31 07:46:16;;;;;;;5.82;2.20;;;14.90;99.90;;;;;;5015827;28;20018;-67
2023/08/31 07:48:42;;;;;;;7.95;2.55;;;14.90;99.90;;;;;;5016816;28;20026;-67
2023/08/31 07:51:08;;;;;;;10.48;2.63;;;15.10;99.90;;;;;;5016100;28;20096;-68
2023/08/31 07:53:33;;;;;;;10.80;2.03;;;15.20;99.90;;;;;;5015997;28;20033;-67
2023/08/31 07:55:59;;;;;;;6.20;2.40;;;15.30;99.90;;;;;;5017316;28;20026;-67
2023/08/31 07:58:26;;;;;;;7.68;2.50;;;15.30;99.90;;;;;;5015869;28;20026;-67
2023/08/31 08:00:55;;;;;;;6.55;2.33;;;15.40;99.90;;;;;;5016740;28;20022;-68
2023/08/31 08:03:22;;;;;;;6.68;2.55;;;15.30;99.90;;;;;;5016523;28;20032;-68
2023/08/31 08:05:47;;;;;;;6.80;2.78;;;15.40;99.90;;;;;;5016157;28;20022;-68
2023/08/31 08:08:13;;;;;;;3.55;1.92;;;15.50;99.90;;;;;;5019320;28;20022;-67
2023/08/31 08:10:39;;;;;;;8.70;2.30;;;15.60;99.90;;;;;;5019249;28;20018;-67
2023/08/31 08:13:04;;;;;;;3.83;1.70;;;15.60;99.90;;;;;;5019281;28;20077;-68
2023/08/31 08:15:31;;;;;;;4.28;1.60;;;15.60;99.90;;;;;;5019100;28;20021;-68
2023/08/31 08:17:57;;;;;;;3.45;1.95;;;15.60;99.90;;;;;;5019403;28;20033;-67
2023/08/31 08:20:23;;;;;;;4.75;2.55;;;15.60;99.90;;;;;;5019020;28;20121;-67
2023/08/31 08:22:52;;;;;;;3.30;1.90;;;15.70;99.90;;;;;;5018945;28;20033;-67
2023/08/31 08:25:19;;;;;;;4.97;1.80;;;15.70;99.90;;;;;;5019736;28;20103;-67
2023/08/31 08:27:44;;;;;;;4.32;1.90;;;15.60;99.90;;;;;;5019682;28;20022;-67
2023/08/31 08:30:10;;;;;;;4.60;2.03;;;15.70;99.90;;;;;;5018899;28;20030;-67
2023/08/31 08:32:36;;;;;;;3.28;1.75;;;15.80;99.90;;;;;;5018835;28;20018;-68
2023/08/31 08:35:02;;;;;;;3.00;1.35;;;15.90;99.90;;;;;;5018737;28;20105;-66
2023/08/31 08:37:29;;;;;;;6.05;2.03;;;15.90;99.90;;;;;;5018794;28;20026;-66
2023/08/31 08:39:54;;;;;;;4.07;2.05;;;15.80;99.90;;;;;;5019619;28;20026;-67
2023/08/31 08:42:24;;;;;;;4.38;1.77;;;15.70;99.90;;;;;;5019500;28;20067;-66
2023/08/31 08:44:50;;;;;;;3.20;1.65;;;15.80;99.90;;;;;;5019585;28;20041;-67
2023/08/31 08:47:17;;;;;;;6.90;2.80;;;15.90;99.90;;;;;;5019406;28;20033;-67
2023/08/31 08:49:43;;;;;;;3.03;1.77;;;16.00;99.90;;;;;;5019655;28;20120;-67
2023/08/31 08:52:09;;;;;;;5.22;1.48;;;16.10;99.90;;;;;;5018961;28;20029;-67
2023/08/31 08:54:35;;;;;;;7.10;1.48;;;16.20;99.90;;;;;;5018444;28;20026;-67
2023/08/31 08:57:00;;;;;;;10.70;1.75;;;16.30;99.90;;;;;;5019346;28;20064;-67
2023/08/31 08:59:27;;;;;;;10.52;1.70;;;16.30;99.90;;;;;;5019533;28;20037;-67
2023/08/31 09:01:53;;;;;;;4.57;1.60;;;16.40;99.90;;;;;;5018628;28;20021;-67
2023/08/31 09:04:19;;;;;;;3.55;1.40;;;16.40;99.90;;;;;;5018336;28;20022;-67
2023/08/31 09:06:44;;;;;;;3.85;1.70;;;16.40;99.90;;;;;;5018251;28;20026;-67
2023/08/31 09:09:10;;;;;;;2.38;1.40;;;16.40;99.90;;;;;;5018215;28;20018;-67
2023/08/31 09:11:36;;;;;;;3.95;1.40;;;16.50;99.90;;;;;;5018882;28;20072;-67
2023/08/31 09:14:18;;;;;;;5.00;2.15;;;16.60;99.90;;;;;;5019110;28;20022;-67
2023/08/31 09:16:46;;;;;;;2.53;1.20;;;16.70;99.90;;;;;;5018603;28;20033;-67
2023/08/31 09:19:22;;;;;;;5.05;1.23;;;16.70;99.90;;;;;;5018945;28;20104;-67
2023/08/31 09:21:49;;;;;;;4.65;1.63;;;16.70;99.90;;;;;;5018742;28;20026;-67
2023/08/31 09:24:14;;;;;;;2.10;1.40;;;16.60;99.90;;;;;;5018989;28;20061;-67
2023/08/31 09:26:52;;;;;;;5.30;1.55;;;16.70;99.90;;;;;;5017826;28;20057;-67
2023/08/31 09:29:17;;;;;;;4.30;1.50;;;16.70;99.90;;;;;;5018708;28;20022;-67
2023/08/31 09:31:44;;;;;;;3.05;1.50;;;16.70;99.90;;;;;;5017743;28;20132;-67
2023/08/31 09:34:10;;;;;;;7.18;1.75;;;16.80;99.90;;;;;;5018646;28;20072;-67
2023/08/31 09:36:37;;;;;;;5.28;1.38;;;16.90;99.90;;;;;;5018555;28;20026;-67
2023/08/31 09:39:05;;;;;;;4.72;1.30;;;17.00;99.90;;;;;;5017718;28;20057;-67
2023/08/31 09:41:30;;;;;;;3.30;1.40;;;17.20;99.90;;;;;;5017547;28;20030;-67
2023/08/31 09:43:56;;;;;;;5.65;1.60;;;17.30;99.90;;;;;;5018346;28;20050;-67
2023/08/31 09:46:22;;;;;;;4.72;1.67;;;17.30;99.90;;;;;;5018338;28;20080;-67
2023/08/31 09:48:48;;;;;;;2.72;1.52;;;17.50;99.90;;;;;;5017530;28;20030;-67
2023/08/31 09:51:22;;;;;;;4.28;1.38;;;17.60;99.90;;;;;;5017587;28;20022;-67
2023/08/31 09:53:49;;;;;;;2.75;1.42;;;17.70;99.90;;;;;;5018252;28;20104;-67
2023/08/31 09:56:20;;;;;;;5.22;1.55;;;17.70;99.90;;;;;;5018231;28;20026;-67
2023/08/31 09:58:46;;;;;;;5.57;1.55;;;17.80;99.90;;;;;;5017949;28;20107;-67
2023/08/31 10:01:12;;;;;;;5.32;2.20;;;17.80;99.90;;;;;;5018052;28;20029;-67
2023/08/31 10:03:38;;;;;;;4.13;2.00;;;17.60;99.90;;;;;;5018087;28;20030;-67
2023/08/31 10:06:05;;;;;;;2.83;1.25;;;17.60;99.90;;;;;;5017911;28;20068;-67
2023/08/31 10:08:31;;;;;;;4.05;1.27;;;17.70;99.90;;;;;;5017502;28;20022;-67
2023/08/31 10:10:59;;;;;;;6.45;1.15;;;17.80;99.90;;;;;;5017933;28;20018;-67
2023/08/31 10:13:26;;;;;;;6.57;1.23;;;17.90;99.90;;;;;;5017013;28;20030;-67
2023/08/31 10:15:53;;;;;;;5.78;1.70;;;18.00;99.90;;;;;;5017072;28;20025;-67
2023/08/31 10:18:18;;;;;;;5.22;1.92;;;18.10;99.90;;;;;;5017945;28;20017;-67
2023/08/31 10:20:45;;;;;;;3.00;1.30;;;18.20;99.90;;;;;;5017661;28;20060;-67
2023/08/31 10:23:11;;;;;;;2.67;1.25;;;18.20;99.90;;;;;;5018054;28;20033;-67
2023/08/31 10:25:45;;;;;;;1.83;1.15;;;18.20;99.90;;;;;;5016927;28;20022;-67
2023/08/31 10:28:18;;;;;;;3.60;1.20;;;18.50;99.90;;;;;;5016401;28;20030;-67
2023/08/31 10:31:07;;;;;;;1.75;1.23;;;19.00;99.90;;;;;;5017605;28;20046;-67
2023/08/31 10:33:42;;;;;;;2.30;1.08;;;19.40;99.90;;;;;;5017682;28;20029;-67
2023/08/31 10:36:18;;;;;;;4.55;1.40;;;19.60;99.90;;;;;;5017941;28;20052;-67
2023/08/31 10:39:08;;;;;;;3.85;1.27;;;20.00;99.90;;;;;;5017265;28;20020;-67
2023/08/31 10:41:35;;;;;;;2.40;1.20;;;20.20;99.90;;;;;;5017445;28;20025;-67
2023/08/31 10:44:00;;;;;;;2.55;1.40;;;20.60;99.90;;;;;;5017390;28;20049;-67
2023/08/31 10:46:42;;;;;;;3.88;1.30;;;20.80;99.90;;;;;;5016776;28;20048;-67
2023/08/31 10:49:10;;;;;;;5.18;1.23;;;20.70;99.90;;;;;;5016660;28;20029;-67
2023/08/31 10:51:38;;;;;;;5.20;1.20;;;20.60;99.90;;;;;;5017445;28;20030;-67
2023/08/31 10:54:26;;;;;;;4.75;1.27;;;20.50;99.90;;;;;;5017803;28;20018;-67
2023/08/31 10:57:00;;;;;;;2.33;1.17;;;20.40;99.90;;;;;;5016413;28;20053;-67
2023/08/31 10:59:26;;;;;;;1.63;0.98;;;20.60;99.90;;;;;;5016441;28;20040;-67
2023/08/31 11:01:59;;;;;;;1.67;0.82;;;21.20;99.90;;;;;;5016435;28;20026;-67
2023/08/31 11:04:29;;;;;;;4.72;1.08;;;21.80;99.90;;;;;;5016509;28;20022;-67
2023/08/31 11:07:14;;;;;;;5.13;1.17;;;22.40;99.90;;;;;;5016294;28;20037;-67
2023/08/31 11:09:40;;;;;;;3.03;1.20;;;23.00;99.90;;;;;;5017110;28;20018;-67
2023/08/31 11:12:06;;;;;;;5.72;1.50;;;23.10;99.90;;;;;;5016440;28;20026;-67
2023/08/31 11:14:32;;;;;;;4.20;1.58;;;23.00;99.90;;;;;;5017027;28;20026;-67
2023/08/31 11:17:00;;;;;;;7.40;1.15;;;22.90;99.90;;;;;;5016451;28;20026;-67
2023/08/31 11:19:27;;;;;;;2.13;1.13;;;23.10;99.90;;;;;;5017095;28;20034;-67
2023/08/31 11:21:54;;;;;;;3.28;1.40;;;23.40;99.90;;;;;;5016917;28;20037;-67
2023/08/31 11:24:21;;;;;;;4.57;1.67;;;23.60;99.90;;;;;;5016241;28;20030;-67
2023/08/31 11:26:51;;;;;;;3.83;1.60;;;23.20;99.90;;;;;;5017112;28;20089;-67
2023/08/31 11:29:17;;;;;;;2.30;1.30;;;22.60;99.90;;;;;;5017465;28;20033;-67
2023/08/31 11:31:43;;;;;;;3.10;1.00;;;22.50;99.90;;;;;;5017269;28;20076;-67
2023/08/31 11:34:16;;;;;;;1.88;1.30;;;22.30;99.90;;;;;;5016165;28;20026;-67
2023/08/31 11:36:43;;;;;;;1.88;0.80;;;21.80;99.90;;;;;;5016096;28;20022;-67
2023/08/31 11:39:10;;;;;;;2.60;1.52;;;21.90;99.90;;;;;;5015992;28;20026;-67
2023/08/31 11:41:40;;;;;;;1.73;0.80;;;22.40;99.90;;;;;;5018659;28;20034;-67
2023/08/31 11:44:06;;;;;;;2.97;0.90;;;22.60;99.90;;;;;;5020770;28;20033;-67
2023/08/31 11:46:32;;;;;;;2.55;1.30;;;22.70;99.90;;;;;;5020376;28;20116;-67
2023/08/31 11:49:00;;;;;;;1.15;1.02;;;23.10;99.90;;;;;;5020063;28;20104;-67
2023/08/31 11:51:29;;;;;;;3.95;1.17;;;23.60;99.90;;;;;;5019481;28;20045;-67
2023/08/31 11:53:56;;;;;;;2.83;1.20;;;23.70;99.90;;;;;;5020678;28;20097;-67
2023/08/31 11:56:21;;;;;;;3.65;1.40;;;23.50;99.90;;;;;;5019642;28;20048;-67
2023/08/31 11:58:50;;;;;;;3.38;1.30;;;23.20;99.90;;;;;;5020800;28;20022;-67
2023/08/31 12:01:21;;;;;;;4.45;1.08;;;23.20;99.90;;;;;;5020300;28;20041;-67
2023/08/31 12:03:47;;;;;;;1.55;1.00;;;23.80;99.90;;;;;;5020576;28;20026;-67
2023/08/31 12:06:18;;;;;;;3.00;1.38;;;24.30;99.90;;;;;;5020204;28;20030;-67
2023/08/31 12:08:43;;;;;;;2.60;1.30;;;25.00;99.90;;;;;;5019306;28;20045;-67
2023/08/31 12:11:09;;;;;;;1.95;1.10;;;25.30;99.90;;;;;;5019339;28;20022;-68
2023/08/31 12:13:35;;;;;;;3.10;1.10;;;25.50;99.90;;;;;;5019478;28;20029;-68
2023/08/31 12:16:01;;;;;;;3.58;1.20;;;25.70;99.90;;;;;;5020473;28;20026;-68
2023/08/31 12:18:31;;;;;;;4.05;1.20;;;26.00;99.90;;;;;;5019411;28;20028;-68
2023/08/31 12:20:57;;;;;;;5.93;1.10;;;26.30;99.90;;;;;;5019967;28;20030;-68
2023/08/31 12:23:23;;;;;;;2.50;1.50;;;26.00;99.80;;;;;;5019153;28;20056;-68
2023/08/31 12:25:50;;;;;;;1.55;1.00;;;25.70;99.90;;;;;;5019342;28;20034;-68
2023/08/31 12:28:17;;;;;;;2.83;1.02;;;25.30;99.90;;;;;;5020195;28;20054;-67
2023/08/31 12:30:49;;;;;;;3.58;1.10;;;24.70;99.90;;;;;;5019316;28;20022;-68
2023/08/31 12:33:15;;;;;;;4.88;1.50;;;24.20;99.90;;;;;;5020038;28;20077;-68
2023/08/31 12:35:41;;;;;;;2.63;0.93;;;23.70;99.90;;;;;;5020108;28;20101;-68
2023/08/31 12:38:07;;;;;;;2.22;0.95;;;23.50;99.90;;;;;;5020098;28;20057;-68
2023/08/31 12:40:32;;;;;;;2.67;1.08;;;23.60;99.90;;;;;;5018920;28;20112;-68
2023/08/31 12:42:58;;;;;;;4.45;3.15;;;23.10;99.90;;;;;;5019513;28;20067;-68
2023/08/31 12:45:23;;;;;;;3.15;1.88;;;23.00;99.90;;;;;;5018797;28;20029;-68